createdAt,value
2019-01-31T00:03:52.677Z,10.70
2019-01-31T00:09:33.704Z,11.97
2019-01-31T00:15:03.317Z,10.85
2019-01-31T00:20:50.339Z,13.13
2019-01-31T00:26:20.422Z,11.97
2019-01-31T00:32:02.189Z,11.55
2019-01-31T00:37:27.290Z,11.75
2019-01-31T00:43:19.604Z,10.43
2019-01-31T00:48:37.710Z,11.97
2019-01-31T00:54:23.002Z,12.43
2019-01-31T00:59:55.126Z,11.53
2019-01-31T01:05:51.437Z,12.88
2019-01-31T01:11:33.718Z,12.47
2019-01-31T01:17:04.630Z,11.65
2019-01-31T01:22:25.723Z,13.03
2019-01-31T01:28:13.951Z,9.73
2019-01-31T01:33:55.179Z,13.55
2019-01-31T01:39:23.097Z,14.35
2019-01-31T01:44:45.264Z,13.28
2019-01-31T01:49:54.111Z,15.38
2019-01-31T01:55:06.074Z,11.97
2019-01-31T02:00:57.700Z,13.78
2019-01-31T02:06:47.454Z,11.45
2019-01-31T02:12:37.091Z,10.80
2019-01-31T02:17:48.404Z,15.68
2019-01-31T02:23:17.188Z,12.33
2019-01-31T02:28:40.537Z,17.75
2019-01-31T02:34:22.208Z,14.43
2019-01-31T02:40:13.522Z,15.28
2019-01-31T02:45:52.104Z,10.85
2019-01-31T02:51:38.793Z,10.65
2019-01-31T02:57:03.573Z,12.33
2019-01-31T03:02:30.744Z,18.07
2019-01-31T03:08:18.865Z,16.40
2019-01-31T03:13:44.683Z,17.35
2019-01-31T03:19:14.641Z,18.77
2019-01-31T03:24:45.835Z,14.15
2019-01-31T03:30:24.982Z,20.05
2019-01-31T03:35:58.872Z,18.25
2019-01-31T03:41:33.408Z,12.78
2019-01-31T03:46:58.521Z,20.65
2019-01-31T03:52:45.060Z,17.00
2019-01-31T03:58:40.976Z,15.83
2019-01-31T04:04:03.098Z,22.02
2019-01-31T04:09:07.971Z,21.75
2019-01-31T04:14:10.001Z,19.50
2019-01-31T04:19:12.293Z,18.23
2019-01-31T04:24:14.324Z,14.45
2019-01-31T04:29:16.352Z,14.50
2019-01-31T04:34:18.334Z,13.28
2019-01-31T04:39:20.316Z,13.53
2019-01-31T04:44:22.366Z,13.90
2019-01-31T04:49:24.376Z,22.77
2019-01-31T04:54:26.381Z,13.43
2019-01-31T04:59:28.327Z,17.48
2019-01-31T05:04:30.610Z,11.05
2019-01-31T05:09:32.678Z,13.30
2019-01-31T05:14:34.650Z,12.60
2019-01-31T05:19:36.704Z,17.30
2019-01-31T05:24:38.722Z,18.23
2019-01-31T05:29:40.758Z,11.25
2019-01-31T05:34:42.714Z,7.70
2019-01-31T05:39:44.671Z,12.35
2019-01-31T05:44:46.672Z,10.20
2019-01-31T05:49:48.728Z,10.05
2019-01-31T05:54:50.762Z,10.35
2019-01-31T05:59:52.765Z,8.98
2019-01-31T06:04:54.837Z,11.80
2019-01-31T06:09:56.834Z,9.83
2019-01-31T06:14:58.866Z,10.68
2019-01-31T06:20:01.180Z,10.90
2019-01-31T06:25:04.620Z,9.13
2019-01-31T06:30:07.997Z,9.18
2019-01-31T06:35:10.420Z,10.50
2019-01-31T06:40:14.734Z,7.33
2019-01-31T06:45:18.181Z,9.65
2019-01-31T06:50:20.230Z,13.43
2019-01-31T06:55:22.484Z,9.98
2019-01-31T07:00:24.509Z,9.98
2019-01-31T07:05:26.498Z,10.78
2019-01-31T07:10:28.480Z,8.93
2019-01-31T07:15:30.760Z,8.18
2019-01-31T07:20:32.853Z,8.70
2019-01-31T07:25:35.129Z,7.70
2019-01-31T07:30:37.117Z,10.63
2019-01-31T07:35:39.099Z,10.10
2019-01-31T07:40:41.075Z,7.97
2019-01-31T07:45:43.091Z,8.90
2019-01-31T07:50:45.077Z,11.30
2019-01-31T07:55:48.194Z,5.97
2019-01-31T08:00:50.165Z,10.43
2019-01-31T08:05:52.202Z,6.40
2019-01-31T08:10:54.207Z,8.80
2019-01-31T08:15:56.167Z,7.85
2019-01-31T08:20:58.134Z,11.03
2019-01-31T08:26:00.178Z,8.85
2019-01-31T08:31:02.155Z,4.95
2019-01-31T08:36:04.253Z,9.10
2019-01-31T08:41:06.271Z,7.30
2019-01-31T08:46:08.491Z,8.75
2019-01-31T08:51:10.515Z,11.38
2019-01-31T08:56:12.548Z,11.80
2019-01-31T09:01:15.720Z,7.15
2019-01-31T09:06:18.467Z,4.87
2019-01-31T09:11:20.484Z,5.58
2019-01-31T09:16:22.522Z,7.12
2019-01-31T09:21:50.257Z,8.03
2019-01-31T09:27:19.496Z,13.18
2019-01-31T09:32:54.210Z,11.05
2019-01-31T09:38:49.915Z,6.22
2019-01-31T09:44:48.787Z,10.60
2019-01-31T09:50:16.271Z,9.85
2019-01-31T09:56:06.021Z,8.25
2019-01-31T10:01:52.642Z,6.53
2019-01-31T10:07:25.090Z,10.48
2019-01-31T10:12:49.937Z,11.03
2019-01-31T10:18:22.592Z,8.98
2019-01-31T10:24:05.130Z,9.33
2019-01-31T10:29:48.718Z,7.22
2019-01-31T10:35:31.184Z,6.53
2019-01-31T10:40:59.709Z,6.80
2019-01-31T10:46:41.716Z,9.33
2019-01-31T10:52:15.000Z,6.55
2019-01-31T10:57:47.056Z,8.20
2019-01-31T11:03:16.747Z,7.28
2019-01-31T11:09:18.454Z,9.73
2019-01-31T11:15:17.056Z,8.35
2019-01-31T11:20:59.724Z,6.97
2019-01-31T11:26:40.221Z,9.50
2019-01-31T11:32:19.858Z,7.53
2019-01-31T11:37:53.854Z,12.50
2019-01-31T11:43:43.686Z,6.97
2019-01-31T11:49:13.779Z,7.42
2019-01-31T11:55:09.575Z,8.30
2019-01-31T12:00:13.800Z,9.10
2019-01-31T12:05:15.937Z,7.72
2019-01-31T12:10:18.220Z,5.90
2019-01-31T12:15:20.323Z,7.12
2019-01-31T12:20:22.357Z,6.47
2019-01-31T12:25:24.389Z,9.50
2019-01-31T12:30:26.755Z,8.50
2019-01-31T12:35:29.798Z,8.08
2019-01-31T12:40:32.092Z,11.90
2019-01-31T12:45:34.151Z,16.12
2019-01-31T12:50:36.263Z,14.05
2019-01-31T12:55:38.306Z,16.48
2019-01-31T13:00:40.413Z,14.00
2019-01-31T13:05:42.754Z,14.75
2019-01-31T13:10:44.779Z,14.55
2019-01-31T13:15:46.819Z,14.30
2019-01-31T13:20:48.829Z,18.77
2019-01-31T13:25:50.945Z,15.98
2019-01-31T13:30:52.958Z,20.15
2019-01-31T13:35:55.041Z,19.37
2019-01-31T13:40:57.012Z,15.95
2019-01-31T13:45:59.077Z,16.52
2019-01-31T13:51:03.087Z,18.23
2019-01-31T13:56:05.966Z,19.00
2019-01-31T14:01:08.036Z,22.05
2019-01-31T14:06:10.032Z,13.93
2019-01-31T14:11:12.007Z,15.00
2019-01-31T14:16:14.308Z,11.70
2019-01-31T14:21:16.348Z,15.40
2019-01-31T14:26:18.361Z,9.53
2019-01-31T14:31:21.434Z,10.45
2019-01-31T14:36:23.592Z,10.88
2019-01-31T14:41:25.594Z,10.68
2019-01-31T14:46:27.873Z,10.70
2019-01-31T14:51:29.986Z,14.13
2019-01-31T14:56:32.053Z,11.22
2019-01-31T15:01:34.144Z,8.83
2019-01-31T15:06:36.240Z,11.10
2019-01-31T15:11:38.621Z,8.65
2019-01-31T15:16:40.953Z,10.40
2019-01-31T15:21:42.982Z,13.18
2019-01-31T15:26:45.009Z,14.15
2019-01-31T15:31:47.347Z,9.50
2019-01-31T15:36:49.498Z,9.30
2019-01-31T15:41:51.583Z,11.18
2019-01-31T15:46:53.920Z,11.80
2019-01-31T15:51:56.044Z,7.58
2019-01-31T15:56:58.136Z,8.25
2019-01-31T16:02:00.196Z,8.53
2019-01-31T16:07:02.608Z,9.23
2019-01-31T16:12:04.713Z,13.43
2019-01-31T16:17:06.724Z,11.22
2019-01-31T16:22:08.842Z,12.53
2019-01-31T16:27:13.078Z,11.78
2019-01-31T16:32:15.109Z,15.20
2019-01-31T16:37:17.460Z,15.13
2019-01-31T16:42:19.522Z,13.68
2019-01-31T16:47:21.506Z,11.68
2019-01-31T16:52:23.552Z,12.03
2019-01-31T16:57:25.624Z,13.45
2019-01-31T17:02:27.772Z,16.62
2019-01-31T17:07:29.752Z,15.03
2019-01-31T17:12:31.816Z,11.60
2019-01-31T17:17:33.977Z,15.35
2019-01-31T17:22:35.981Z,15.83
2019-01-31T17:27:37.980Z,14.68
2019-01-31T17:32:40.390Z,14.50
2019-01-31T17:37:42.412Z,16.42
2019-01-31T17:42:44.423Z,13.85
2019-01-31T17:47:46.433Z,14.30
2019-01-31T17:52:48.761Z,12.35
2019-01-31T17:57:50.864Z,14.05
2019-01-31T18:02:52.895Z,13.45
2019-01-31T18:07:54.903Z,11.30
2019-01-31T18:12:56.906Z,15.05
2019-01-31T18:17:58.902Z,16.48
2019-01-31T18:23:01.098Z,11.18
2019-01-31T18:28:03.330Z,13.28
2019-01-31T18:33:05.370Z,16.50
2019-01-31T18:38:07.567Z,13.03
2019-01-31T18:43:09.720Z,13.50
2019-01-31T18:48:13.110Z,14.65
2019-01-31T18:53:15.124Z,12.70
2019-01-31T18:58:17.411Z,15.03
2019-01-31T19:03:20.804Z,17.10
2019-01-31T19:08:23.036Z,16.32
2019-01-31T19:45:17.953Z,17.25
2019-01-31T21:30:24.546Z,19.05
2019-01-31T22:48:07.508Z,15.63
2019-01-31T23:38:27.995Z,14.83
2019-01-31T23:51:26.849Z,14.43
